sensor_id;sensor_type;location;lat;lon;timestamp;pressure;altitude;pressure_sealevel;temperature;humidity
73106;BME280;61559;50.476;15.588;2023-05-25T00:00:46;98196.48;;;6.52;76.83
73106;BME280;61559;50.476;15.588;2023-05-25T00:03:33;98198.69;;;6.50;76.94
73106;BME280;61559;50.476;15.588;2023-05-25T00:06:05;98197.78;;;6.45;76.90
73106;BME280;61559;50.476;15.588;2023-05-25T00:08:37;98194.98;;;6.42;76.78
73106;BME280;61559;50.476;15.588;2023-05-25T00:11:09;98195.71;;;6.39;77.01
73106;BME280;61559;50.476;15.588;2023-05-25T00:13:40;98197.91;;;6.37;77.13
73106;BME280;61559;50.476;15.588;2023-05-25T00:16:11;98198.54;;;6.34;77.12
73106;BME280;61559;50.476;15.588;2023-05-25T00:18:42;98196.40;;;6.32;77.30
73106;BME280;61559;50.476;15.588;2023-05-25T00:21:14;98195.63;;;6.29;77.44
73106;BME280;61559;50.476;15.588;2023-05-25T00:23:45;98195.75;;;6.25;77.56
73106;BME280;61559;50.476;15.588;2023-05-25T00:26:17;98194.58;;;6.21;77.68
73106;BME280;61559;50.476;15.588;2023-05-25T00:28:48;98197.30;;;6.17;77.71
73106;BME280;61559;50.476;15.588;2023-05-25T00:31:20;98200.23;;;6.15;77.82
73106;BME280;61559;50.476;15.588;2023-05-25T00:33:51;98200.64;;;6.14;77.73
73106;BME280;61559;50.476;15.588;2023-05-25T00:36:22;98200.23;;;6.11;77.63
73106;BME280;61559;50.476;15.588;2023-05-25T00:38:54;98200.14;;;6.09;77.61
73106;BME280;61559;50.476;15.588;2023-05-25T00:41:25;98192.84;;;6.07;77.60
73106;BME280;61559;50.476;15.588;2023-05-25T00:43:57;98190.46;;;6.05;77.54
73106;BME280;61559;50.476;15.588;2023-05-25T00:46:29;98192.66;;;6.02;77.63
73106;BME280;61559;50.476;15.588;2023-05-25T00:49:03;98184.64;;;5.99;77.69
73106;BME280;61559;50.476;15.588;2023-05-25T00:51:34;98180.96;;;5.97;77.70
73106;BME280;61559;50.476;15.588;2023-05-25T00:54:06;98176.47;;;5.95;77.68
73106;BME280;61559;50.476;15.588;2023-05-25T00:56:39;98175.19;;;5.92;77.63
73106;BME280;61559;50.476;15.588;2023-05-25T00:59:13;98174.56;;;5.86;77.64
73106;BME280;61559;50.476;15.588;2023-05-25T01:01:47;98176.26;;;5.84;77.83
73106;BME280;61559;50.476;15.588;2023-05-25T01:04:23;98174.16;;;5.80;77.65
73106;BME280;61559;50.476;15.588;2023-05-25T01:06:57;98173.40;;;5.77;77.67
73106;BME280;61559;50.476;15.588;2023-05-25T01:09:31;98170.13;;;5.75;77.80
73106;BME280;61559;50.476;15.588;2023-05-25T01:12:04;98174.89;;;5.73;77.77
73106;BME280;61559;50.476;15.588;2023-05-25T01:14:36;98175.39;;;5.72;77.83
73106;BME280;61559;50.476;15.588;2023-05-25T01:17:08;98178.73;;;5.70;77.79
73106;BME280;61559;50.476;15.588;2023-05-25T01:19:40;98179.48;;;5.68;77.71
73106;BME280;61559;50.476;15.588;2023-05-25T01:22:31;98171.36;;;5.64;77.73
73106;BME280;61559;50.476;15.588;2023-05-25T01:25:11;98173.27;;;5.62;77.83
73106;BME280;61559;50.476;15.588;2023-05-25T01:27:45;98176.98;;;5.59;77.95
73106;BME280;61559;50.476;15.588;2023-05-25T01:30:19;98176.48;;;5.58;77.94
73106;BME280;61559;50.476;15.588;2023-05-25T01:32:53;98179.14;;;5.57;77.94
73106;BME280;61559;50.476;15.588;2023-05-25T01:35:25;98180.20;;;5.57;77.97
73106;BME280;61559;50.476;15.588;2023-05-25T01:37:58;98178.88;;;5.55;78.16
73106;BME280;61559;50.476;15.588;2023-05-25T01:40:29;98182.00;;;5.53;78.23
73106;BME280;61559;50.476;15.588;2023-05-25T01:43:01;98185.68;;;5.50;78.28
73106;BME280;61559;50.476;15.588;2023-05-25T01:45:32;98179.14;;;5.47;78.24
73106;BME280;61559;50.476;15.588;2023-05-25T01:48:08;98178.16;;;5.45;78.16
73106;BME280;61559;50.476;15.588;2023-05-25T01:51:04;98173.58;;;5.39;78.35
73106;BME280;61559;50.476;15.588;2023-05-25T01:53:41;98166.01;;;5.34;78.55
73106;BME280;61559;50.476;15.588;2023-05-25T01:56:14;98165.86;;;5.32;78.47
73106;BME280;61559;50.476;15.588;2023-05-25T01:58:47;98164.68;;;5.32;78.58
73106;BME280;61559;50.476;15.588;2023-05-25T02:01:20;98162.38;;;5.33;78.73
73106;BME280;61559;50.476;15.588;2023-05-25T02:03:53;98161.41;;;5.32;78.60
73106;BME280;61559;50.476;15.588;2023-05-25T02:06:25;98162.48;;;5.30;78.58
73106;BME280;61559;50.476;15.588;2023-05-25T02:08:54;98160.95;;;5.27;78.49
73106;BME280;61559;50.476;15.588;2023-05-25T02:11:25;98158.85;;;5.22;78.54
73106;BME280;61559;50.476;15.588;2023-05-25T02:13:57;98155.81;;;5.17;78.65
73106;BME280;61559;50.476;15.588;2023-05-25T02:16:28;98154.23;;;5.12;78.93
73106;BME280;61559;50.476;15.588;2023-05-25T02:19:00;98151.77;;;5.07;79.10
73106;BME280;61559;50.476;15.588;2023-05-25T02:21:31;98153.45;;;5.02;79.12
73106;BME280;61559;50.476;15.588;2023-05-25T02:24:05;98157.27;;;4.98;79.26
73106;BME280;61559;50.476;15.588;2023-05-25T02:26:38;98161.10;;;4.98;79.43
73106;BME280;61559;50.476;15.588;2023-05-25T02:29:09;98164.27;;;4.98;79.50
73106;BME280;61559;50.476;15.588;2023-05-25T02:31:40;98170.55;;;4.97;79.38
73106;BME280;61559;50.476;15.588;2023-05-25T02:34:12;98177.59;;;4.96;79.34
73106;BME280;61559;50.476;15.588;2023-05-25T02:36:44;98176.61;;;4.94;79.42
73106;BME280;61559;50.476;15.588;2023-05-25T02:39:15;98179.92;;;4.91;79.40
73106;BME280;61559;50.476;15.588;2023-05-25T02:41:46;98184.61;;;4.88;79.54
73106;BME280;61559;50.476;15.588;2023-05-25T02:44:17;98181.60;;;4.85;79.63
73106;BME280;61559;50.476;15.588;2023-05-25T02:46:48;98184.55;;;4.82;79.52
73106;BME280;61559;50.476;15.588;2023-05-25T02:49:20;98187.05;;;4.81;79.36
73106;BME280;61559;50.476;15.588;2023-05-25T02:51:51;98186.48;;;4.80;79.39
73106;BME280;61559;50.476;15.588;2023-05-25T02:54:22;98192.05;;;4.79;79.58
73106;BME280;61559;50.476;15.588;2023-05-25T02:56:53;98195.30;;;4.79;79.51
73106;BME280;61559;50.476;15.588;2023-05-25T02:59:24;98196.17;;;4.79;79.49
73106;BME280;61559;50.476;15.588;2023-05-25T03:01:55;98202.96;;;4.80;79.31
73106;BME280;61559;50.476;15.588;2023-05-25T03:04:27;98206.59;;;4.79;79.15
73106;BME280;61559;50.476;15.588;2023-05-25T03:06:59;98207.09;;;4.79;79.09
73106;BME280;61559;50.476;15.588;2023-05-25T03:09:31;98210.55;;;4.77;79.17
73106;BME280;61559;50.476;15.588;2023-05-25T03:12:02;98210.30;;;4.75;79.31
73106;BME280;61559;50.476;15.588;2023-05-25T03:14:34;98213.80;;;4.71;79.33
73106;BME280;61559;50.476;15.588;2023-05-25T03:17:05;98212.16;;;4.66;79.58
73106;BME280;61559;50.476;15.588;2023-05-25T03:19:36;98217.09;;;4.64;79.69
73106;BME280;61559;50.476;15.588;2023-05-25T03:22:08;98217.14;;;4.62;79.84
73106;BME280;61559;50.476;15.588;2023-05-25T03:24:39;98219.45;;;4.63;79.87
73106;BME280;61559;50.476;15.588;2023-05-25T03:27:10;98220.97;;;4.63;79.83
73106;BME280;61559;50.476;15.588;2023-05-25T03:29:40;98217.35;;;4.64;79.86
73106;BME280;61559;50.476;15.588;2023-05-25T03:32:11;98220.01;;;4.65;79.97
73106;BME280;61559;50.476;15.588;2023-05-25T03:34:42;98219.95;;;4.66;80.12
73106;BME280;61559;50.476;15.588;2023-05-25T03:37:14;98223.04;;;4.69;80.23
73106;BME280;61559;50.476;15.588;2023-05-25T03:39:45;98226.32;;;4.73;80.22
73106;BME280;61559;50.476;15.588;2023-05-25T03:42:16;98233.69;;;4.79;80.14
73106;BME280;61559;50.476;15.588;2023-05-25T03:44:47;98235.04;;;4.84;80.19
73106;BME280;61559;50.476;15.588;2023-05-25T03:47:18;98240.24;;;4.87;80.08
73106;BME280;61559;50.476;15.588;2023-05-25T03:49:49;98238.27;;;4.90;80.07
73106;BME280;61559;50.476;15.588;2023-05-25T03:52:20;98240.08;;;4.96;80.14
73106;BME280;61559;50.476;15.588;2023-05-25T03:54:51;98240.90;;;5.01;80.06
73106;BME280;61559;50.476;15.588;2023-05-25T03:57:22;98244.18;;;5.06;80.04
73106;BME280;61559;50.476;15.588;2023-05-25T03:59:53;98245.77;;;5.09;79.91
73106;BME280;61559;50.476;15.588;2023-05-25T04:02:25;98244.41;;;5.12;79.91
73106;BME280;61559;50.476;15.588;2023-05-25T04:04:56;98250.34;;;5.15;80.05
73106;BME280;61559;50.476;15.588;2023-05-25T04:07:28;98248.60;;;5.21;80.29
73106;BME280;61559;50.476;15.588;2023-05-25T04:09:59;98251.11;;;5.33;80.24
73106;BME280;61559;50.476;15.588;2023-05-25T04:12:31;98253.38;;;5.50;80.25
73106;BME280;61559;50.476;15.588;2023-05-25T04:15:02;98257.54;;;5.73;80.17
73106;BME280;61559;50.476;15.588;2023-05-25T04:17:34;98259.20;;;5.96;79.92
73106;BME280;61559;50.476;15.588;2023-05-25T04:20:10;98262.93;;;6.20;79.50
73106;BME280;61559;50.476;15.588;2023-05-25T04:22:41;98268.56;;;6.40;79.21
73106;BME280;61559;50.476;15.588;2023-05-25T04:25:13;98273.16;;;6.66;78.89
73106;BME280;61559;50.476;15.588;2023-05-25T04:27:46;98266.98;;;6.94;78.59
73106;BME280;61559;50.476;15.588;2023-05-25T04:30:17;98266.20;;;7.25;78.24
73106;BME280;61559;50.476;15.588;2023-05-25T04:32:49;98261.60;;;7.57;77.72
73106;BME280;61559;50.476;15.588;2023-05-25T04:35:20;98265.00;;;7.92;77.45
73106;BME280;61559;50.476;15.588;2023-05-25T04:37:51;98262.18;;;8.26;76.85
73106;BME280;61559;50.476;15.588;2023-05-25T04:40:23;98264.39;;;8.58;76.20
73106;BME280;61559;50.476;15.588;2023-05-25T04:42:54;98270.44;;;8.93;75.52
73106;BME280;61559;50.476;15.588;2023-05-25T04:45:25;98272.52;;;9.26;74.90
73106;BME280;61559;50.476;15.588;2023-05-25T04:47:58;98272.50;;;9.58;74.19
73106;BME280;61559;50.476;15.588;2023-05-25T04:50:30;98271.02;;;9.85;73.16
73106;BME280;61559;50.476;15.588;2023-05-25T04:53:02;98267.58;;;10.12;73.04
73106;BME280;61559;50.476;15.588;2023-05-25T04:55:33;98271.14;;;10.47;72.74
73106;BME280;61559;50.476;15.588;2023-05-25T04:58:04;98267.88;;;10.79;71.63
73106;BME280;61559;50.476;15.588;2023-05-25T05:00:36;98271.64;;;11.05;70.98
73106;BME280;61559;50.476;15.588;2023-05-25T05:03:09;98272.04;;;11.32;70.46
73106;BME280;61559;50.476;15.588;2023-05-25T05:05:40;98274.05;;;11.55;69.98
73106;BME280;61559;50.476;15.588;2023-05-25T05:08:13;98270.48;;;11.77;69.49
73106;BME280;61559;50.476;15.588;2023-05-25T05:10:44;98265.92;;;11.99;68.83
73106;BME280;61559;50.476;15.588;2023-05-25T05:13:15;98262.55;;;12.24;68.34
73106;BME280;61559;50.476;15.588;2023-05-25T05:15:46;98266.26;;;12.55;67.87
73106;BME280;61559;50.476;15.588;2023-05-25T05:18:17;98266.81;;;12.85;67.42
73106;BME280;61559;50.476;15.588;2023-05-25T05:20:49;98269.52;;;13.13;67.04
73106;BME280;61559;50.476;15.588;2023-05-25T05:23:20;98271.89;;;13.17;66.49
73106;BME280;61559;50.476;15.588;2023-05-25T05:25:51;98268.38;;;12.97;66.18
73106;BME280;61559;50.476;15.588;2023-05-25T05:28:22;98267.65;;;12.78;65.65
73106;BME280;61559;50.476;15.588;2023-05-25T05:30:56;98269.27;;;12.46;66.02
73106;BME280;61559;50.476;15.588;2023-05-25T05:33:27;98272.73;;;12.15;65.84
73106;BME280;61559;50.476;15.588;2023-05-25T05:35:59;98273.54;;;11.82;66.85
73106;BME280;61559;50.476;15.588;2023-05-25T05:38:31;98274.77;;;11.57;67.48
73106;BME280;61559;50.476;15.588;2023-05-25T05:41:02;98271.70;;;11.40;68.63
73106;BME280;61559;50.476;15.588;2023-05-25T05:43:36;98270.51;;;11.31;68.73
73106;BME280;61559;50.476;15.588;2023-05-25T05:46:09;98269.08;;;11.26;69.09
73106;BME280;61559;50.476;15.588;2023-05-25T05:48:40;98267.59;;;11.24;69.66
73106;BME280;61559;50.476;15.588;2023-05-25T05:51:11;98268.98;;;11.24;70.26
73106;BME280;61559;50.476;15.588;2023-05-25T05:53:43;98273.16;;;11.26;70.57
73106;BME280;61559;50.476;15.588;2023-05-25T05:56:18;98280.30;;;11.31;70.69
73106;BME280;61559;50.476;15.588;2023-05-25T05:58:50;98282.82;;;11.34;70.21
73106;BME280;61559;50.476;15.588;2023-05-25T06:01:23;98279.34;;;11.35;70.39
73106;BME280;61559;50.476;15.588;2023-05-25T06:03:54;98280.17;;;11.37;70.35
73106;BME280;61559;50.476;15.588;2023-05-25T06:06:25;98277.02;;;11.42;70.82
73106;BME280;61559;50.476;15.588;2023-05-25T06:08:57;98278.70;;;11.50;70.83
73106;BME280;61559;50.476;15.588;2023-05-25T06:11:29;98280.20;;;11.57;70.72
73106;BME280;61559;50.476;15.588;2023-05-25T06:14:01;98280.27;;;11.65;70.54
73106;BME280;61559;50.476;15.588;2023-05-25T06:16:32;98279.50;;;11.73;70.33
73106;BME280;61559;50.476;15.588;2023-05-25T06:19:04;98279.70;;;11.82;70.37
73106;BME280;61559;50.476;15.588;2023-05-25T06:21:35;98277.69;;;11.90;70.03
73106;BME280;61559;50.476;15.588;2023-05-25T06:24:08;98272.60;;;11.98;69.66
73106;BME280;61559;50.476;15.588;2023-05-25T06:26:39;98276.45;;;12.07;69.74
73106;BME280;61559;50.476;15.588;2023-05-25T06:29:10;98280.90;;;12.18;69.51
73106;BME280;61559;50.476;15.588;2023-05-25T06:31:45;98281.96;;;12.29;69.54
73106;BME280;61559;50.476;15.588;2023-05-25T06:34:16;98280.00;;;12.39;69.00
73106;BME280;61559;50.476;15.588;2023-05-25T06:36:47;98283.48;;;12.51;69.25
73106;BME280;61559;50.476;15.588;2023-05-25T06:39:18;98280.05;;;12.63;69.24
73106;BME280;61559;50.476;15.588;2023-05-25T06:41:49;98284.46;;;12.75;69.10
73106;BME280;61559;50.476;15.588;2023-05-25T06:44:20;98287.77;;;12.87;68.90
73106;BME280;61559;50.476;15.588;2023-05-25T06:46:52;98285.70;;;12.96;67.46
73106;BME280;61559;50.476;15.588;2023-05-25T06:49:23;98286.19;;;12.99;66.47
73106;BME280;61559;50.476;15.588;2023-05-25T06:51:54;98285.65;;;13.04;66.54
73106;BME280;61559;50.476;15.588;2023-05-25T06:54:25;98285.65;;;13.11;66.41
73106;BME280;61559;50.476;15.588;2023-05-25T06:56:57;98282.89;;;13.18;66.57
73106;BME280;61559;50.476;15.588;2023-05-25T06:59:28;98283.78;;;13.27;66.54
73106;BME280;61559;50.476;15.588;2023-05-25T07:01:59;98285.70;;;13.35;66.34
73106;BME280;61559;50.476;15.588;2023-05-25T07:04:31;98288.05;;;13.42;65.70
73106;BME280;61559;50.476;15.588;2023-05-25T07:07:03;98282.78;;;13.48;65.06
73106;BME280;61559;50.476;15.588;2023-05-25T07:09:35;98288.45;;;13.54;64.80
73106;BME280;61559;50.476;15.588;2023-05-25T07:12:06;98286.12;;;13.57;63.99
73106;BME280;61559;50.476;15.588;2023-05-25T07:14:40;98282.80;;;13.63;64.09
73106;BME280;61559;50.476;15.588;2023-05-25T07:17:11;98284.08;;;13.70;64.04
73106;BME280;61559;50.476;15.588;2023-05-25T07:19:42;98288.27;;;13.76;64.02
73106;BME280;61559;50.476;15.588;2023-05-25T07:22:13;98290.89;;;13.83;63.69
73106;BME280;61559;50.476;15.588;2023-05-25T07:24:46;98290.63;;;13.90;64.43
73106;BME280;61559;50.476;15.588;2023-05-25T07:27:17;98295.83;;;13.97;63.93
73106;BME280;61559;50.476;15.588;2023-05-25T07:29:48;98297.15;;;13.99;62.93
73106;BME280;61559;50.476;15.588;2023-05-25T07:32:19;98299.56;;;13.98;63.02
73106;BME280;61559;50.476;15.588;2023-05-25T07:34:51;98295.02;;;13.99;62.94
73106;BME280;61559;50.476;15.588;2023-05-25T07:37:22;98287.48;;;14.02;63.09
73106;BME280;61559;50.476;15.588;2023-05-25T07:39:53;98292.18;;;14.04;62.88
73106;BME280;61559;50.476;15.588;2023-05-25T07:42:25;98293.55;;;14.08;63.38
73106;BME280;61559;50.476;15.588;2023-05-25T07:45:02;98293.91;;;14.16;63.41
73106;BME280;61559;50.476;15.588;2023-05-25T07:47:34;98292.52;;;14.24;63.94
73106;BME280;61559;50.476;15.588;2023-05-25T07:50:06;98291.91;;;14.33;63.13
73106;BME280;61559;50.476;15.588;2023-05-25T07:52:38;98295.26;;;14.35;62.02
73106;BME280;61559;50.476;15.588;2023-05-25T07:55:10;98296.83;;;14.39;62.36
73106;BME280;61559;50.476;15.588;2023-05-25T07:57:41;98296.41;;;14.41;62.37
73106;BME280;61559;50.476;15.588;2023-05-25T08:00:14;98294.64;;;14.45;62.27
73106;BME280;61559;50.476;15.588;2023-05-25T08:02:45;98296.42;;;14.49;61.54
73106;BME280;61559;50.476;15.588;2023-05-25T08:05:17;98297.77;;;14.52;61.50
73106;BME280;61559;50.476;15.588;2023-05-25T08:07:48;98297.82;;;14.56;61.41
73106;BME280;61559;50.476;15.588;2023-05-25T08:10:19;98302.83;;;14.62;61.24
73106;BME280;61559;50.476;15.588;2023-05-25T08:12:50;98305.59;;;14.66;61.98
73106;BME280;61559;50.476;15.588;2023-05-25T08:15:22;98304.66;;;14.73;61.77
73106;BME280;61559;50.476;15.588;2023-05-25T08:17:53;98303.27;;;14.78;61.23
73106;BME280;61559;50.476;15.588;2023-05-25T08:20:25;98302.29;;;14.85;61.12
73106;BME280;61559;50.476;15.588;2023-05-25T08:22:57;98296.23;;;14.89;60.78
73106;BME280;61559;50.476;15.588;2023-05-25T08:25:28;98299.30;;;14.94;61.07
73106;BME280;61559;50.476;15.588;2023-05-25T08:27:59;98298.67;;;15.01;61.03
73106;BME280;61559;50.476;15.588;2023-05-25T08:30:30;98292.64;;;15.06;61.62
73106;BME280;61559;50.476;15.588;2023-05-25T08:33:02;98289.05;;;15.14;61.30
73106;BME280;61559;50.476;15.588;2023-05-25T08:35:33;98291.70;;;15.18;60.00
73106;BME280;61559;50.476;15.588;2023-05-25T08:38:08;98290.98;;;15.21;60.52
73106;BME280;61559;50.476;15.588;2023-05-25T08:40:41;98290.33;;;15.27;60.53
73106;BME280;61559;50.476;15.588;2023-05-25T08:43:13;98298.05;;;15.36;60.15
73106;BME280;61559;50.476;15.588;2023-05-25T08:45:44;98295.15;;;15.44;60.74
73106;BME280;61559;50.476;15.588;2023-05-25T08:48:18;98292.48;;;15.54;60.81
73106;BME280;61559;50.476;15.588;2023-05-25T08:51:10;98296.67;;;15.62;59.99
73106;BME280;61559;50.476;15.588;2023-05-25T08:53:43;98294.77;;;15.67;58.82
73106;BME280;61559;50.476;15.588;2023-05-25T08:56:18;98297.15;;;15.67;58.46
73106;BME280;61559;50.476;15.588;2023-05-25T08:59:01;98294.81;;;15.68;58.56
73106;BME280;61559;50.476;15.588;2023-05-25T09:01:40;98291.50;;;15.73;58.42
73106;BME280;61559;50.476;15.588;2023-05-25T09:04:14;98286.69;;;15.79;57.74
73106;BME280;61559;50.476;15.588;2023-05-25T09:06:48;98289.55;;;15.80;57.97
73106;BME280;61559;50.476;15.588;2023-05-25T09:09:38;98292.67;;;15.82;57.99
73106;BME280;61559;50.476;15.588;2023-05-25T09:12:10;98296.90;;;15.82;58.13
73106;BME280;61559;50.476;15.588;2023-05-25T09:14:42;98301.83;;;15.87;58.76
73106;BME280;61559;50.476;15.588;2023-05-25T09:17:17;98302.41;;;15.93;57.68
73106;BME280;61559;50.476;15.588;2023-05-25T09:19:49;98302.23;;;15.95;57.10
73106;BME280;61559;50.476;15.588;2023-05-25T09:22:20;98301.39;;;15.97;57.24
73106;BME280;61559;50.476;15.588;2023-05-25T09:24:52;98301.21;;;16.00;56.97
73106;BME280;61559;50.476;15.588;2023-05-25T09:27:24;98307.52;;;16.02;56.37
73106;BME280;61559;50.476;15.588;2023-05-25T09:29:56;98300.85;;;16.05;56.74
73106;BME280;61559;50.476;15.588;2023-05-25T09:32:31;98300.02;;;16.14;58.46
73106;BME280;61559;50.476;15.588;2023-05-25T09:35:10;98296.49;;;16.24;58.06
73106;BME280;61559;50.476;15.588;2023-05-25T09:37:42;98305.73;;;16.34;58.41
73106;BME280;61559;50.476;15.588;2023-05-25T09:40:14;98305.97;;;16.39;57.29
73106;BME280;61559;50.476;15.588;2023-05-25T09:42:46;98304.63;;;16.42;57.18
73106;BME280;61559;50.476;15.588;2023-05-25T09:45:17;98296.98;;;16.45;56.59
73106;BME280;61559;50.476;15.588;2023-05-25T09:47:48;98293.20;;;16.47;56.73
73106;BME280;61559;50.476;15.588;2023-05-25T09:50:24;98296.20;;;16.54;57.99
73106;BME280;61559;50.476;15.588;2023-05-25T09:52:59;98293.47;;;16.61;56.84
73106;BME280;61559;50.476;15.588;2023-05-25T09:55:31;98289.19;;;16.68;57.21
73106;BME280;61559;50.476;15.588;2023-05-25T09:58:22;98287.30;;;16.73;57.20
73106;BME280;61559;50.476;15.588;2023-05-25T10:00:55;98289.02;;;16.78;56.11
73106;BME280;61559;50.476;15.588;2023-05-25T10:03:27;98287.55;;;16.84;56.37
73106;BME280;61559;50.476;15.588;2023-05-25T10:05:58;98287.91;;;16.91;56.85
73106;BME280;61559;50.476;15.588;2023-05-25T10:08:31;98281.80;;;16.98;57.30
73106;BME280;61559;50.476;15.588;2023-05-25T10:11:03;98279.27;;;17.03;56.29
73106;BME280;61559;50.476;15.588;2023-05-25T10:13:35;98273.19;;;17.07;55.54
73106;BME280;61559;50.476;15.588;2023-05-25T10:16:08;98273.02;;;17.09;55.57
73106;BME280;61559;50.476;15.588;2023-05-25T10:18:46;98277.12;;;17.14;56.47
73106;BME280;61559;50.476;15.588;2023-05-25T10:21:18;98273.61;;;17.22;57.16
73106;BME280;61559;50.476;15.588;2023-05-25T10:23:53;98273.89;;;17.29;55.78
73106;BME280;61559;50.476;15.588;2023-05-25T10:26:28;98270.02;;;17.32;54.55
73106;BME280;61559;50.476;15.588;2023-05-25T10:29:03;98275.30;;;17.35;55.64
73106;BME280;61559;50.476;15.588;2023-05-25T10:31:35;98273.02;;;17.39;54.91
73106;BME280;61559;50.476;15.588;2023-05-25T10:34:08;98276.30;;;17.45;55.22
73106;BME280;61559;50.476;15.588;2023-05-25T10:36:40;98276.56;;;17.49;54.15
73106;BME280;61559;50.476;15.588;2023-05-25T10:39:12;98276.13;;;17.50;54.59
73106;BME280;61559;50.476;15.588;2023-05-25T10:41:44;98268.38;;;17.52;54.27
73106;BME280;61559;50.476;15.588;2023-05-25T10:44:17;98271.94;;;17.52;53.89
73106;BME280;61559;50.476;15.588;2023-05-25T10:46:48;98271.44;;;17.55;54.89
73106;BME280;61559;50.476;15.588;2023-05-25T10:49:31;98269.14;;;17.61;54.99
73106;BME280;61559;50.476;15.588;2023-05-25T10:52:03;98267.46;;;17.67;55.13
73106;BME280;61559;50.476;15.588;2023-05-25T10:54:35;98265.30;;;17.74;55.82
73106;BME280;61559;50.476;15.588;2023-05-25T10:57:12;98263.29;;;17.82;55.77
73106;BME280;61559;50.476;15.588;2023-05-25T10:59:51;98261.06;;;17.88;55.07
73106;BME280;61559;50.476;15.588;2023-05-25T11:02:25;98261.61;;;17.98;54.07
73106;BME280;61559;50.476;15.588;2023-05-25T11:08:01;98254.16;;;18.11;53.54
73106;BME280;61559;50.476;15.588;2023-05-25T11:10:54;98254.77;;;18.18;53.50
73106;BME280;61559;50.476;15.588;2023-05-25T11:13:35;98253.93;;;18.27;54.18
73106;BME280;61559;50.476;15.588;2023-05-25T11:16:18;98252.70;;;18.36;54.13
73106;BME280;61559;50.476;15.588;2023-05-25T11:18:54;98254.68;;;18.47;54.09
73106;BME280;61559;50.476;15.588;2023-05-25T11:21:43;98249.73;;;18.59;54.66
73106;BME280;61559;50.476;15.588;2023-05-25T11:24:18;98249.67;;;18.73;53.16
73106;BME280;61559;50.476;15.588;2023-05-25T11:26:59;98250.47;;;18.79;52.36
73106;BME280;61559;50.476;15.588;2023-05-25T11:29:33;98243.44;;;18.88;53.33
73106;BME280;61559;50.476;15.588;2023-05-25T11:32:10;98240.77;;;19.00;53.93
73106;BME280;61559;50.476;15.588;2023-05-25T11:34:42;98235.27;;;19.10;52.39
73106;BME280;61559;50.476;15.588;2023-05-25T11:37:16;98239.13;;;19.17;52.79
73106;BME280;61559;50.476;15.588;2023-05-25T11:39:50;98239.02;;;19.23;52.58
73106;BME280;61559;50.476;15.588;2023-05-25T11:42:22;98234.48;;;19.31;53.43
73106;BME280;61559;50.476;15.588;2023-05-25T11:44:54;98230.67;;;19.36;51.66
73106;BME280;61559;50.476;15.588;2023-05-25T11:47:27;98232.80;;;19.38;51.61
73106;BME280;61559;50.476;15.588;2023-05-25T11:50:01;98228.73;;;19.44;51.25
73106;BME280;61559;50.476;15.588;2023-05-25T11:52:33;98226.29;;;19.45;50.59
73106;BME280;61559;50.476;15.588;2023-05-25T11:55:11;98222.57;;;19.46;50.05
73106;BME280;61559;50.476;15.588;2023-05-25T11:57:43;98222.21;;;19.43;49.74
73106;BME280;61559;50.476;15.588;2023-05-25T12:00:25;98219.41;;;19.45;50.42
73106;BME280;61559;50.476;15.588;2023-05-25T12:02:57;98217.65;;;19.53;51.76
73106;BME280;61559;50.476;15.588;2023-05-25T12:05:37;98214.46;;;19.63;52.02
73106;BME280;61559;50.476;15.588;2023-05-25T12:08:08;98213.42;;;19.73;50.85
73106;BME280;61559;50.476;15.588;2023-05-25T12:10:50;98213.97;;;19.83;51.28
73106;BME280;61559;50.476;15.588;2023-05-25T12:13:22;98207.79;;;19.95;50.96
73106;BME280;61559;50.476;15.588;2023-05-25T12:15:55;98209.52;;;20.10;52.30
73106;BME280;61559;50.476;15.588;2023-05-25T12:18:30;98206.15;;;20.25;51.88
73106;BME280;61559;50.476;15.588;2023-05-25T12:21:01;98198.84;;;20.37;51.15
73106;BME280;61559;50.476;15.588;2023-05-25T12:23:37;98196.02;;;20.48;50.31
73106;BME280;61559;50.476;15.588;2023-05-25T12:26:11;98195.27;;;20.58;50.86
73106;BME280;61559;50.476;15.588;2023-05-25T12:28:58;98194.42;;;20.68;50.03
73106;BME280;61559;50.476;15.588;2023-05-25T12:31:30;98188.31;;;20.76;50.43
73106;BME280;61559;50.476;15.588;2023-05-25T12:34:10;98188.70;;;20.87;51.14
73106;BME280;61559;50.476;15.588;2023-05-25T12:36:46;98186.66;;;20.97;49.95
73106;BME280;61559;50.476;15.588;2023-05-25T12:39:33;98182.40;;;20.99;48.19
73106;BME280;61559;50.476;15.588;2023-05-25T12:42:13;98178.02;;;21.02;47.16
73106;BME280;61559;50.476;15.588;2023-05-25T12:44:45;98176.88;;;21.06;47.98
73106;BME280;61559;50.476;15.588;2023-05-25T12:47:18;98176.90;;;21.16;47.62
73106;BME280;61559;50.476;15.588;2023-05-25T12:49:51;98175.99;;;21.21;48.33
73106;BME280;61559;50.476;15.588;2023-05-25T12:52:36;98175.18;;;21.28;48.91
73106;BME280;61559;50.476;15.588;2023-05-25T12:55:24;98175.36;;;21.39;48.36
73106;BME280;61559;50.476;15.588;2023-05-25T12:57:59;98169.64;;;21.44;45.86
73106;BME280;61559;50.476;15.588;2023-05-25T13:00:33;98170.29;;;21.50;46.15
73106;BME280;61559;50.476;15.588;2023-05-25T13:03:05;98172.63;;;21.61;46.75
73106;BME280;61559;50.476;15.588;2023-05-25T13:05:37;98166.27;;;21.73;46.10
73106;BME280;61559;50.476;15.588;2023-05-25T13:08:08;98168.89;;;21.83;45.55
73106;BME280;61559;50.476;15.588;2023-05-25T13:10:40;98169.64;;;21.94;47.48
73106;BME280;61559;50.476;15.588;2023-05-25T13:13:11;98163.02;;;22.07;46.13
73106;BME280;61559;50.476;15.588;2023-05-25T13:15:42;98164.91;;;22.11;44.37
73106;BME280;61559;50.476;15.588;2023-05-25T13:18:13;98163.73;;;22.04;43.85
73106;BME280;61559;50.476;15.588;2023-05-25T13:20:46;98164.36;;;21.89;43.86
73106;BME280;61559;50.476;15.588;2023-05-25T13:23:22;98168.66;;;21.74;43.32
73106;BME280;61559;50.476;15.588;2023-05-25T13:25:53;98166.74;;;21.64;43.89